Time;durP1;ratioP1;P1;durP2;ratioP2;P2;SDS_P1;SDS_P2;PMS_P1;PMS_P2;Temp;Humidity;BMP_temperature;BMP_pressure;BME280_temperature;BME280_humidity;BME280_pressure;Samples;Min_cycle;Max_cycle;Signal;HPM_P1;HPM_P2
2021/07/31 00:02:05;;;;;;;6.47;5.55;;;;;;;22.03;62.67;99698.69;1495292;91;22869;-83
2021/07/31 00:04:31;;;;;;;10.15;5.92;;;;;;;21.99;62.92;99702.41;1476670;92;21406;-81
2021/07/31 00:06:58;;;;;;;8.63;6.70;;;;;;;21.93;63.12;99700.67;1495178;91;22088;-81
2021/07/31 00:09:24;;;;;;;9.33;6.72;;;;;;;21.87;63.58;99704.33;1495228;91;21366;-82
2021/07/31 00:11:51;;;;;;;9.05;6.62;;;;;;;21.80;63.59;99706.33;1495213;92;21274;-81
2021/07/31 00:14:17;;;;;;;9.38;6.75;;;;;;;21.75;63.83;99714.30;1495130;91;21409;-82
2021/07/31 00:16:44;;;;;;;9.90;6.30;;;;;;;21.71;64.12;99706.41;1495051;92;21506;-81
2021/07/31 00:19:10;;;;;;;8.03;5.85;;;;;;;21.66;64.17;99706.30;1495239;91;22241;-82
2021/07/31 00:21:39;;;;;;;9.03;6.03;;;;;;;21.62;64.08;99697.36;1495368;91;22220;-82
2021/07/31 00:24:05;;;;;;;10.13;7.55;;;;;;;21.58;64.02;99700.25;1425264;92;21310;-82
2021/07/31 00:26:32;;;;;;;13.88;6.75;;;;;;;21.55;63.81;99700.72;1495369;91;21466;-82
2021/07/31 00:28:59;;;;;;;10.35;7.28;;;;;;;21.50;64.02;99703.30;1422047;92;22273;-81
2021/07/31 00:31:25;;;;;;;9.25;6.40;;;;;;;;;;1495260;92;21389;-82
2021/07/31 00:33:52;;;;;;;8.75;6.17;;;;;;;21.39;64.46;99701.44;1502823;91;21407;-82
2021/07/31 00:36:18;;;;;;;11.65;6.17;;;;;;;21.32;64.84;99709.62;1502820;91;22301;-83
2021/07/31 00:38:46;;;;;;;8.60;5.83;;;;;;;21.22;64.65;99712.59;1502810;91;21336;-83
2021/07/31 00:41:12;;;;;;;15.63;7.87;;;;;;;21.10;64.95;99714.77;1503078;91;22654;-82
2021/07/31 00:43:39;;;;;;;12.13;6.75;;;;;;;21.01;64.88;99713.48;1424267;91;21310;-82
2021/07/31 00:46:06;;;;;;;10.98;6.50;;;;;;;20.90;65.08;99718.32;1502779;91;21349;-82
2021/07/31 00:48:32;;;;;;;9.98;6.55;;;;;;;20.77;65.54;99711.27;1502731;91;21435;-82
2021/07/31 00:50:59;;;;;;;7.58;6.22;;;;;;;20.68;66.42;99712.14;1502932;91;22228;-82
2021/07/31 00:53:25;;;;;;;10.88;6.10;;;;;;;20.61;66.95;99715.47;1502416;91;22309;-82
2021/07/31 00:55:54;;;;;;;8.98;6.33;;;;;;;20.58;66.84;99724.00;1475793;92;22381;-82
2021/07/31 00:58:27;;;;;;;9.70;6.90;;;;;;;20.55;66.73;99723.12;1413302;91;21443;-81
2021/07/31 01:00:55;;;;;;;7.45;6.20;;;;;;;20.48;66.72;99717.81;1499119;91;21244;-82
2021/07/31 01:03:21;;;;;;;9.38;6.60;;;;;;;20.44;67.17;99718.49;1352154;91;22271;-81
2021/07/31 01:05:54;;;;;;;14.33;7.15;;;;;;;20.40;67.36;99709.23;1461536;92;22286;-81
2021/07/31 01:08:20;;;;;;;8.05;6.78;;;;;;;20.39;67.87;99708.95;1499065;92;21399;-82
2021/07/31 01:10:46;;;;;;;11.03;7.40;;;;;;;20.33;68.27;99705.84;1498829;91;21671;-82
2021/07/31 01:13:13;;;;;;;9.80;6.62;;;;;;;20.28;68.40;99714.08;1498937;91;21318;-82
2021/07/31 01:16:03;;;;;;;14.78;9.28;;;;;;;20.23;68.41;99708.56;1452439;94;21312;-82
2021/07/31 01:18:30;;;;;;;10.20;7.53;;;;;;;20.20;68.81;99714.39;1412401;94;21411;-82
2021/07/31 01:20:56;;;;;;;7.20;6.33;;;;;;;20.15;68.73;99708.06;1456117;95;21250;-82
2021/07/31 01:23:24;;;;;;;9.65;6.28;;;;;;;20.11;68.46;99715.77;1352131;96;22808;-82
2021/07/31 01:25:51;;;;;;;8.33;6.33;;;;;;;20.09;68.93;99719.19;1455946;93;22292;-82
2021/07/31 01:28:19;;;;;;;10.48;6.28;;;;;;;20.09;68.97;99721.06;1320972;95;21376;-83
2021/07/31 01:30:45;;;;;;;11.53;7.03;;;;;;;20.06;69.47;99712.40;1455983;93;21437;-82
2021/07/31 01:33:12;;;;;;;10.50;6.53;;;;;;;20.04;69.60;99715.02;1297774;93;21545;-81
2021/07/31 01:35:38;;;;;;;16.23;6.63;;;;;;;20.04;69.46;99716.36;1455845;95;21540;-82
2021/07/31 01:38:05;;;;;;;13.13;7.33;;;;;;;19.99;69.69;99712.18;1456079;95;21492;-83
2021/07/31 01:40:33;;;;;;;9.07;6.83;;;;;;;19.96;69.52;99716.13;1456059;95;21242;-82
2021/07/31 01:43:05;;;;;;;11.20;6.43;;;;;;;19.91;69.66;99713.33;1437128;95;22432;-82
2021/07/31 01:45:31;;;;;;;7.83;7.03;;;;;;;19.87;69.76;99715.34;1456009;93;22144;-82
2021/07/31 01:47:57;;;;;;;9.00;6.40;;;;;;;19.82;70.16;99710.14;1393480;93;21500;-82
2021/07/31 01:50:29;;;;;;;7.20;5.80;;;;;;;19.81;70.54;99709.82;1456111;95;22721;-83
2021/07/31 01:52:55;;;;;;;12.17;7.07;;;;;;;19.77;70.10;99711.33;1388548;93;21478;-82
2021/07/31 01:55:21;;;;;;;10.43;7.47;;;;;;;19.74;69.96;99700.23;1436163;94;21242;-82
2021/07/31 01:57:48;;;;;;;11.63;6.80;;;;;;;19.71;70.22;99704.17;1455980;95;21389;-83
2021/07/31 02:00:14;;;;;;;9.63;6.43;;;;;;;19.67;70.14;99702.97;1406392;95;21323;-82
2021/07/31 02:02:41;;;;;;;11.80;7.00;;;;;;;19.66;70.26;99709.92;1445692;93;21331;-82
2021/07/31 02:05:14;;;;;;;7.20;6.50;;;;;;;19.60;70.52;99709.73;1456111;93;22588;-81
2021/07/31 02:07:47;;;;;;;8.93;6.83;;;;;;;19.57;70.53;99718.77;1456104;93;21389;-82
2021/07/31 02:10:16;;;;;;;10.87;6.73;;;;;;;19.52;70.92;99722.63;1455986;93;21242;-82
2021/07/31 02:12:42;;;;;;;10.60;6.63;;;;;;;19.51;71.14;99726.37;1410824;95;21375;-82
2021/07/31 02:15:11;;;;;;;10.07;7.57;;;;;;;19.52;71.19;99719.95;1456214;93;22611;-82
2021/07/31 02:17:37;;;;;;;8.93;6.27;;;;;;;19.52;71.01;99723.97;1364059;95;22079;-82
2021/07/31 02:20:05;;;;;;;8.93;7.10;;;;;;;19.48;71.57;99722.77;1456148;95;22144;-82
2021/07/31 02:22:37;;;;;;;13.63;8.23;;;;;;;19.47;71.50;99726.50;1455973;95;21552;-81
2021/07/31 02:25:03;;;;;;;9.33;6.60;;;;;;;19.47;71.64;99717.11;1439892;95;21380;-82
2021/07/31 02:27:32;;;;;;;11.77;6.97;;;;;;;19.47;71.53;99719.79;1456142;95;21449;-82
2021/07/31 02:29:59;;;;;;;8.20;6.43;;;;;;;19.44;71.50;99714.88;1456190;95;21462;-82
2021/07/31 02:32:25;;;;;;;7.67;6.57;;;;;;;19.39;71.42;99715.03;1456105;93;22345;-82
2021/07/31 02:34:51;;;;;;;11.70;7.07;;;;;;;19.34;71.84;99708.16;1452850;93;21301;-82
2021/07/31 02:37:19;;;;;;;9.40;6.40;;;;;;;19.32;72.14;99708.08;1455764;93;21383;-83
2021/07/31 02:39:45;;;;;;;11.40;6.70;;;;;;;19.31;72.04;99705.92;1456040;95;22076;-82
2021/07/31 02:42:12;;;;;;;9.00;6.23;;;;;;;19.28;72.12;99699.66;1455905;95;21531;-83
2021/07/31 02:44:38;;;;;;;9.20;6.20;;;;;;;19.25;72.27;99697.43;1329987;95;21264;-82
2021/07/31 02:47:06;;;;;;;10.50;6.90;;;;;;;19.25;72.04;99708.16;1341188;95;21315;-83
2021/07/31 02:49:33;;;;;;;8.43;7.03;;;;;;;19.25;72.51;99698.77;1456062;95;21287;-82
2021/07/31 02:51:59;;;;;;;14.47;8.03;;;;;;;19.25;71.85;99696.59;1456027;93;22100;-82
2021/07/31 02:54:28;;;;;;;9.00;6.90;;;;;;;19.24;71.92;99698.45;1409200;93;22754;-82
2021/07/31 02:56:54;;;;;;;11.77;7.27;;;;;;;19.25;71.97;99697.92;1390785;93;22719;-82
2021/07/31 02:59:21;;;;;;;8.93;7.20;;;;;;;19.26;72.00;99697.72;1405268;91;22312;-81
2021/07/31 03:01:48;;;;;;;13.13;7.77;;;;;;;19.26;71.88;99696.37;1514208;91;21261;-82
2021/07/31 03:04:16;;;;;;;8.80;7.33;;;;;;;19.28;71.87;99701.01;1362749;90;22761;-82
2021/07/31 03:06:42;;;;;;;12.90;7.83;;;;;;;19.27;72.06;99691.30;1469724;90;21304;-82
2021/07/31 03:09:08;;;;;;;13.03;8.03;;;;;;;19.28;71.79;99696.17;1513950;90;21157;-81
2021/07/31 03:11:34;;;;;;;11.00;7.20;;;;;;;19.27;71.68;99698.00;1514025;91;21180;-81
2021/07/31 03:14:03;;;;;;;11.43;7.60;;;;;;;19.26;72.22;99699.06;1514034;90;21342;-81
2021/07/31 03:16:29;;;;;;;11.80;7.90;;;;;;;19.26;72.32;99704.42;1513713;91;21442;-81
2021/07/31 03:18:56;;;;;;;12.97;8.23;;;;;;;19.28;72.31;99698.33;1514071;89;21253;-81
2021/07/31 03:21:22;;;;;;;10.00;7.33;;;;;;;19.30;72.19;99691.38;1514277;90;21194;-81
2021/07/31 03:23:49;;;;;;;11.77;8.17;;;;;;;19.30;72.22;99695.41;1502855;89;21319;-81
2021/07/31 03:26:24;;;;;;;12.40;7.80;;;;;;;19.32;72.04;99691.98;1514181;90;21334;-81
2021/07/31 03:28:50;;;;;;;20.27;7.83;;;;;;;19.32;71.85;99695.48;1387368;90;21305;-82
2021/07/31 03:31:23;;;;;;;12.50;7.77;;;;;;;19.34;72.17;99696.09;1494187;91;22045;-82
2021/07/31 03:33:50;;;;;;;11.80;7.10;;;;;;;19.36;72.57;99698.03;1518562;90;21231;-81
2021/07/31 03:36:17;;;;;;;9.43;6.70;;;;;;;19.38;72.72;99697.27;1517790;90;21411;-82
2021/07/31 03:38:45;;;;;;;18.43;8.07;;;;;;;19.43;72.62;99697.95;1494289;91;21445;-82
2021/07/31 03:41:11;;;;;;;8.70;7.53;;;;;;;19.48;72.52;99694.59;1518074;89;21282;-82
2021/07/31 03:43:37;;;;;;;8.33;6.80;;;;;;;19.52;72.15;99700.64;1438860;91;22295;-83
2021/07/31 03:46:07;;;;;;;8.00;7.17;;;;;;;19.54;71.92;99699.08;1518062;90;21239;-82
2021/07/31 03:48:33;;;;;;;15.60;7.50;;;;;;;19.59;72.00;99700.55;1467348;90;22369;-82
2021/07/31 03:51:00;;;;;;;9.33;7.33;;;;;;;19.66;72.04;99700.53;1518152;91;21526;-82
2021/07/31 03:53:26;;;;;;;11.97;7.20;;;;;;;19.74;71.94;99706.41;1418772;91;22127;-82
2021/07/31 03:55:52;;;;;;;10.82;8.20;;;;;;;19.81;71.91;99700.42;1514941;90;21335;-81
2021/07/31 03:58:20;;;;;;;13.13;7.87;;;;;;;19.91;71.67;99701.75;1375255;90;22074;-82
2021/07/31 04:00:46;;;;;;;16.42;8.23;;;;;;;19.95;71.69;99695.70;1480854;90;22181;-81
2021/07/31 04:03:12;;;;;;;11.15;7.87;;;;;;;20.04;71.40;99693.52;1483033;90;22170;-82
2021/07/31 04:05:39;;;;;;;20.40;9.33;;;;;;;20.11;71.02;99697.45;1520463;89;21297;-83
2021/07/31 04:08:06;;;;;;;14.05;8.20;;;;;;;20.18;71.11;99703.05;1520328;90;21371;-84
2021/07/31 04:10:35;;;;;;;12.23;8.05;;;;;;;20.27;71.14;99704.88;1386769;90;21448;-83
2021/07/31 04:13:03;;;;;;;14.78;7.90;;;;;;;20.34;71.10;99710.16;1520237;90;21393;-82
2021/07/31 04:15:30;;;;;;;23.45;8.93;;;;;;;20.42;70.71;99705.80;1478235;90;21272;-81
2021/07/31 04:17:57;;;;;;;11.22;8.30;;;;;;;20.50;70.69;99706.82;1454324;90;21448;-81
2021/07/31 04:20:23;;;;;;;16.12;8.15;;;;;;;20.55;70.56;99712.36;1520080;90;22085;-81
2021/07/31 04:22:50;;;;;;;10.65;8.45;;;;;;;20.59;70.37;99713.53;1403027;90;22302;-81
2021/07/31 04:25:17;;;;;;;15.70;8.50;;;;;;;20.63;70.43;99712.03;1520321;90;22193;-81
2021/07/31 04:27:43;;;;;;;15.65;6.87;;;;;;;20.68;70.43;99706.76;1328322;93;22178;-82
2021/07/31 04:30:10;;;;;;;20.23;8.15;;;;;;;20.73;70.47;99706.89;1483093;92;21399;-81
2021/07/31 04:32:37;;;;;;;9.80;7.45;;;;;;;20.80;69.89;99708.66;1493303;91;21344;-81
2021/07/31 04:35:04;;;;;;;11.95;7.30;;;;;;;20.83;69.62;99714.91;1470140;94;21433;-81
2021/07/31 04:37:37;;;;;;;22.95;8.73;;;;;;;20.85;69.37;99722.23;1522120;90;21290;-81
2021/07/31 04:40:05;;;;;;;11.15;6.72;;;;;;;20.87;69.06;99724.98;1365063;90;21304;-81
2021/07/31 04:42:31;;;;;;;10.10;7.00;;;;;;;20.88;69.17;99717.73;1520768;90;21245;-81
2021/07/31 04:44:57;;;;;;;15.38;7.92;;;;;;;20.90;69.15;99718.32;1371435;90;22665;-80
2021/07/31 04:47:24;;;;;;;15.95;8.10;;;;;;;20.92;69.27;99725.11;1425283;90;22457;-80
2021/07/31 04:49:50;;;;;;;20.43;8.05;;;;;;;20.96;69.04;99718.73;1493248;92;21255;-80
2021/07/31 04:52:16;;;;;;;18.15;7.50;;;;;;;21.00;69.11;99713.16;1362030;92;21274;-81
2021/07/31 04:54:43;;;;;;;13.28;8.68;;;;;;;21.04;68.95;99713.01;1494173;91;22802;-82
2021/07/31 04:57:10;;;;;;;24.12;9.33;;;;;;;21.09;68.76;99715.83;1415214;93;22430;-81
2021/07/31 04:59:38;;;;;;;11.43;7.97;;;;;;;21.16;69.05;99717.86;1390565;93;22243;-81
2021/07/31 05:02:04;;;;;;;15.23;7.97;;;;;;;21.22;69.14;99713.95;1452843;93;22512;-81
2021/07/31 05:04:31;;;;;;;14.50;8.25;;;;;;;21.27;69.02;99714.06;1394983;92;21465;-81
2021/07/31 05:06:58;;;;;;;15.32;8.20;;;;;;;21.31;68.78;99716.56;1337396;92;21351;-81
2021/07/31 05:09:24;;;;;;;19.80;8.98;;;;;;;21.39;68.50;99707.64;1469715;93;21422;-83
2021/07/31 05:11:55;;;;;;;12.70;8.98;;;;;;;21.50;68.46;99711.37;1479424;92;22810;-82
2021/07/31 05:14:21;;;;;;;11.57;8.03;;;;;;;21.58;68.25;99711.02;1469830;94;21312;-82
2021/07/31 05:16:48;;;;;;;11.88;9.45;;;;;;;21.65;68.12;99708.72;1385116;93;21262;-82
2021/07/31 05:19:14;;;;;;;16.67;8.30;;;;;;;21.72;68.26;99714.27;1469902;94;21243;-82
2021/07/31 05:21:40;;;;;;;12.13;8.35;;;;;;;21.85;68.22;99709.13;1479554;91;21447;-82
2021/07/31 05:24:07;;;;;;;12.95;7.90;;;;;;;21.96;67.95;99711.50;1419991;94;22242;-81
2021/07/31 05:26:33;;;;;;;8.63;7.78;;;;;;;22.04;67.67;99707.89;1479396;93;21220;-82
2021/07/31 05:28:59;;;;;;;13.45;8.93;;;;;;;22.15;67.23;99713.46;1388194;94;22301;-82
2021/07/31 05:31:26;;;;;;;12.55;7.95;;;;;;;22.24;66.67;99710.69;1479541;93;21359;-81
2021/07/31 05:33:52;;;;;;;9.05;7.78;;;;;;;22.33;66.37;99705.22;1350358;94;21553;-81
2021/07/31 05:36:18;;;;;;;11.05;8.15;;;;;;;22.39;66.24;99700.20;1350726;93;21547;-82
2021/07/31 05:38:44;;;;;;;13.55;7.78;;;;;;;22.47;66.17;99703.86;1470191;93;21215;-82
2021/07/31 05:41:16;;;;;;;11.75;8.13;;;;;;;22.67;66.23;99698.50;1479748;92;21561;-82
2021/07/31 05:43:43;;;;;;;11.83;7.90;;;;;;;22.67;66.23;99698.50;1411239;93;21325;-81
2021/07/31 05:46:10;;;;;;;13.10;6.97;;;;;;;22.86;66.01;99699.89;1432642;93;21387;-83
2021/07/31 05:48:37;;;;;;;9.90;7.78;;;;;;;22.94;64.45;99706.23;1389568;93;22580;-82
2021/07/31 05:51:03;;;;;;;10.82;8.43;;;;;;;23.07;64.16;99707.79;1405514;93;21396;-81
2021/07/31 05:53:30;;;;;;;12.05;8.00;;;;;;;23.14;64.23;99711.15;1396721;94;21565;-82
2021/07/31 05:55:57;;;;;;;13.62;8.48;;;;;;;23.20;64.21;99708.80;1396076;93;22401;-82
2021/07/31 05:58:29;;;;;;;9.83;7.65;;;;;;;23.36;64.14;99709.85;1397891;93;21458;-82
2021/07/31 06:00:56;;;;;;;11.55;8.35;;;;;;;23.51;63.71;99701.13;1399539;92;21703;-81
2021/07/31 06:03:22;;;;;;;11.45;7.58;;;;;;;23.68;63.16;99709.19;1435863;90;21422;-82
2021/07/31 06:05:48;;;;;;;9.55;7.25;;;;;;;23.80;62.23;99712.59;1432236;90;21585;-83
2021/07/31 06:08:19;;;;;;;12.43;7.45;;;;;;;23.94;61.67;99713.55;1429351;91;21371;-83
2021/07/31 06:10:47;;;;;;;15.45;8.20;;;;;;;24.03;61.44;99718.80;1429379;90;21503;-85
2021/07/31 06:13:14;;;;;;;17.50;6.50;;;;;;;24.17;60.86;99711.09;1436779;90;22316;-89
2021/07/31 06:15:42;;;;;;;8.55;6.60;;;;;;;24.30;60.33;99711.51;1431241;91;23417;-90
2021/07/31 06:18:11;;;;;;;16.87;7.40;;;;;;;24.45;60.04;99717.63;1438377;90;21422;-90
2021/07/31 06:20:39;;;;;;;13.75;6.35;;;;;;;24.60;59.92;99717.48;1430114;90;21512;-87
2021/07/31 06:23:05;;;;;;;14.58;6.22;;;;;;;24.78;59.40;99723.88;1435626;90;21378;-87
2021/07/31 06:25:32;;;;;;;8.00;6.30;;;;;;;24.92;58.64;99720.20;1418656;91;21566;-86
2021/07/31 06:28:00;;;;;;;9.75;6.53;;;;;;;24.98;57.63;99722.68;1431948;90;23518;-87
2021/07/31 06:30:27;;;;;;;10.35;6.65;;;;;;;25.12;57.68;99716.28;1430832;90;21467;-88
2021/07/31 06:32:53;;;;;;;12.15;6.42;;;;;;;25.25;56.94;99711.52;1416284;91;22485;-88
2021/07/31 06:35:26;;;;;;;13.05;6.45;;;;;;;25.38;56.26;99708.34;1401508;91;22456;-89
2021/07/31 06:37:52;;;;;;;9.63;5.92;;;;;;;25.48;55.77;99712.45;1428500;90;21378;-87
2021/07/31 06:40:25;;;;;;;7.33;6.42;;;;;;;25.61;55.84;99710.63;1431749;90;21474;-87
2021/07/31 06:42:53;;;;;;;7.47;5.58;;;;;;;25.76;55.79;99709.06;1415187;91;21593;-88
2021/07/31 06:45:20;;;;;;;10.08;5.55;;;;;;;25.85;55.55;99704.78;1420175;91;22309;-89
2021/07/31 06:47:46;;;;;;;14.15;5.42;;;;;;;25.99;54.56;99701.84;1430762;90;21311;-89
2021/07/31 06:50:13;;;;;;;10.40;5.75;;;;;;;26.10;54.47;99703.50;1433528;91;21349;-88
2021/07/31 06:52:39;;;;;;;7.78;5.15;;;;;;;26.23;53.78;99695.92;1431496;91;22385;-88
2021/07/31 06:55:06;;;;;;;15.05;5.00;;;;;;;26.38;52.74;99695.94;1430009;91;21371;-89
2021/07/31 06:57:32;;;;;;;9.08;5.22;;;;;;;26.50;51.43;99692.48;1429167;90;21467;-90
2021/07/31 06:59:58;;;;;;;8.83;4.80;;;;;;;26.53;50.31;99690.58;1427782;91;21488;-88
2021/07/31 07:02:24;;;;;;;10.55;5.42;;;;;;;26.62;50.40;99699.53;1419287;91;22236;-87
2021/07/31 07:04:51;;;;;;;7.62;4.80;;;;;;;26.71;49.90;99700.06;1424092;91;22355;-90
2021/07/31 07:07:20;;;;;;;9.48;4.72;;;;;;;26.85;49.72;99690.84;1416177;91;21385;-88
2021/07/31 07:09:47;;;;;;;13.58;5.10;;;;;;;27.01;49.92;99681.56;1413901;91;21596;-88
2021/07/31 07:12:13;;;;;;;13.55;4.67;;;;;;;27.22;49.58;99685.64;1430282;91;21429;-88
2021/07/31 07:14:40;;;;;;;7.83;4.12;;;;;;;27.49;49.71;99684.47;1425034;91;21341;-88
2021/07/31 07:17:07;;;;;;;5.33;4.83;;;;;;;27.78;49.36;99681.34;1411186;91;22517;-89
2021/07/31 07:19:33;;;;;;;9.28;4.83;;;;;;;28.10;48.73;99682.27;1424910;91;21385;-88
2021/07/31 07:22:00;;;;;;;11.75;4.85;;;;;;;28.33;47.77;99682.67;1414221;91;21555;-88
2021/07/31 07:24:27;;;;;;;6.97;4.50;;;;;;;28.48;47.00;99696.73;1425183;91;22487;-89
2021/07/31 07:26:53;;;;;;;7.95;4.03;;;;;;;28.55;46.48;99699.96;1429148;91;22406;-88
2021/07/31 07:29:20;;;;;;;6.75;4.17;;;;;;;28.60;46.22;99695.84;1428614;91;21386;-87
2021/07/31 07:31:46;;;;;;;8.30;3.98;;;;;;;28.63;44.53;99699.36;1428658;91;21563;-87
2021/07/31 07:34:12;;;;;;;17.95;4.25;;;;;;;28.66;45.01;99691.98;1429657;90;21542;-86
2021/07/31 07:36:39;;;;;;;14.05;3.85;;;;;;;28.71;45.58;99685.66;1429645;91;21475;-88
2021/07/31 07:39:06;;;;;;;5.10;3.87;;;;;;;28.73;45.07;99692.45;1423332;91;21335;-87
2021/07/31 07:41:32;;;;;;;8.25;4.75;;;;;;;28.74;45.22;99692.73;1427415;91;21490;-88
2021/07/31 07:44:00;;;;;;;11.65;4.42;;;;;;;28.72;45.12;99686.75;1429195;91;22192;-90
2021/07/31 07:46:30;;;;;;;8.15;4.17;;;;;;;28.67;45.17;99689.51;1424045;91;21424;-89
2021/07/31 07:49:02;;;;;;;7.70;4.35;;;;;;;28.62;45.27;99696.35;1426032;91;23328;-89
2021/07/31 07:51:28;;;;;;;7.78;3.95;;;;;;;28.63;45.49;99699.88;1426273;91;22481;-88
2021/07/31 07:53:55;;;;;;;4.78;3.22;;;;;;;28.58;44.61;99699.95;1435671;89;21498;-89
2021/07/31 07:56:21;;;;;;;11.68;3.87;;;;;;;28.53;44.70;99693.98;1446874;89;22145;-89
2021/07/31 07:58:53;;;;;;;9.50;4.42;;;;;;;28.49;44.58;99694.30;1463479;89;22662;-89
2021/07/31 08:01:22;;;;;;;9.80;3.87;;;;;;;28.50;44.47;99693.20;1464712;89;22270;-88
2021/07/31 08:03:48;;;;;;;13.13;4.80;;;;;;;28.51;44.46;99690.72;1457295;88;22351;-89
2021/07/31 08:06:18;;;;;;;4.60;3.80;;;;;;;28.55;44.31;99687.72;1427464;91;23503;-89
2021/07/31 08:08:44;;;;;;;19.52;4.28;;;;;;;28.56;44.38;99690.14;1427556;91;21617;-90
2021/07/31 08:11:11;;;;;;;7.47;3.95;;;;;;;28.63;44.73;99691.72;1404099;91;21591;-89
2021/07/31 08:13:38;;;;;;;11.43;4.10;;;;;;;28.71;43.57;99690.55;1405550;92;22967;-87
2021/07/31 08:16:05;;;;;;;9.98;4.10;;;;;;;28.79;43.75;99685.05;1409646;93;21418;-89
2021/07/31 08:18:32;;;;;;;6.17;3.50;;;;;;;28.97;43.80;99682.15;1408295;92;21390;-88
2021/07/31 08:20:58;;;;;;;10.45;3.85;;;;;;;29.22;41.41;99671.57;1382939;93;22572;-88
2021/07/31 08:23:25;;;;;;;8.80;4.78;;;;;;;29.54;42.15;99675.00;1402314;92;21590;-88
2021/07/31 08:25:52;;;;;;;8.33;4.20;;;;;;;29.79;41.17;99669.00;1405711;93;21391;-88
2021/07/31 08:28:30;;;;;;;6.75;4.00;;;;;;;29.96;40.69;99670.67;1400320;93;21457;-86
2021/07/31 08:30:56;;;;;;;8.25;3.80;;;;;;;30.08;40.56;99679.78;1508278;91;21368;-88
2021/07/31 08:33:23;;;;;;;7.47;3.35;;;;;;;30.17;39.38;99672.54;1438952;94;23326;-88
2021/07/31 08:35:50;;;;;;;9.35;3.58;;;;;;;30.40;39.75;99670.04;1432266;90;22480;-88
2021/07/31 08:38:18;;;;;;;6.25;3.50;;;;;;;30.63;39.20;99672.39;1422212;91;21570;-87
2021/07/31 08:40:44;;;;;;;7.53;4.15;;;;;;;30.76;38.74;99678.45;1423873;91;21648;-88
2021/07/31 08:43:11;;;;;;;10.80;4.28;;;;;;;30.76;38.12;99662.07;1426111;91;22893;-86
2021/07/31 08:45:40;;;;;;;7.58;3.45;;;;;;;30.73;38.50;99668.13;1419146;91;21482;-86
2021/07/31 08:48:10;;;;;;;9.90;3.62;;;;;;;30.53;38.20;99667.37;1425591;91;21533;-89
2021/07/31 08:50:38;;;;;;;10.82;4.05;;;;;;;30.42;38.69;99667.27;1421121;91;21718;-87
2021/07/31 08:53:07;;;;;;;10.30;4.15;;;;;;;30.40;39.10;99658.56;1426805;91;21597;-87
2021/07/31 08:55:33;;;;;;;21.20;4.92;;;;;;;30.66;39.19;99662.23;1427988;91;21394;-88
2021/07/31 08:58:03;;;;;;;27.48;4.62;;;;;;;30.96;39.33;99667.19;1426706;91;21430;-88
2021/07/31 09:00:29;;;;;;;;;;;;;;;30.98;38.90;99662.21;1427408;91;21452;-89
2021/07/31 09:02:56;;;;;;;8.83;3.25;;;;;;;30.97;37.97;99660.60;1445515;91;20314;-87
2021/07/31 09:05:34;;;;;;;17.15;3.95;;;;;;;31.02;38.35;99659.15;1435607;91;21370;-87
2021/07/31 09:08:06;;;;;;;5.15;3.55;;;;;;;31.07;38.48;99666.42;1420295;91;21393;-85
2021/07/31 09:10:39;;;;;;;4.92;3.75;;;;;;;30.98;38.88;99664.14;1436094;91;21400;-87
2021/07/31 09:13:18;;;;;;;8.90;3.47;;;;;;;30.86;37.96;99659.17;1438764;91;22416;-85
2021/07/31 09:15:52;;;;;;;19.25;4.75;;;;;;;30.78;38.63;99658.46;1426563;91;22339;-85
2021/07/31 09:18:33;;;;;;;13.38;3.72;;;;;;;30.73;38.87;99653.11;1439745;91;21569;-85
2021/07/31 09:21:15;;;;;;;20.50;5.95;;;;;;;30.70;38.90;99653.69;1434644;90;21334;-82
2021/07/31 09:23:53;;;;;;;9.33;4.03;;;;;;;30.66;38.93;99645.85;1440184;91;21444;-82
2021/07/31 09:26:26;;;;;;;7.75;3.77;;;;;;;30.53;38.93;99645.52;1440659;91;21400;-81
2021/07/31 09:29:04;;;;;;;10.32;3.95;;;;;;;30.49;39.50;99649.94;1439508;90;21533;-81
2021/07/31 09:31:31;;;;;;;13.62;3.95;;;;;;;30.41;39.65;99650.63;1439142;91;21593;-81
2021/07/31 09:34:00;;;;;;;7.15;3.70;;;;;;;30.16;39.14;99640.91;1434477;91;21586;-81
2021/07/31 09:36:38;;;;;;;14.75;5.00;;;;;;;29.96;39.67;99636.58;1433567;91;21445;-82
2021/07/31 09:39:08;;;;;;;10.55;4.20;;;;;;;29.81;40.05;99634.89;1431557;91;23463;-83
2021/07/31 09:41:37;;;;;;;11.08;4.58;;;;;;;29.68;40.65;99642.42;1433788;91;21460;-82
2021/07/31 09:44:09;;;;;;;9.98;4.65;;;;;;;29.56;40.76;99644.19;1441010;90;21342;-81
2021/07/31 09:46:46;;;;;;;13.83;4.00;;;;;;;29.51;41.07;99637.42;1437402;91;21393;-82
2021/07/31 09:49:21;;;;;;;26.23;5.75;;;;;;;29.37;40.89;99637.32;1431600;90;21313;-83
2021/07/31 09:51:51;;;;;;;19.55;4.05;;;;;;;29.38;41.50;99648.50;1436473;91;21437;-83
2021/07/31 09:54:19;;;;;;;;;;;;;;;29.30;41.95;99657.87;1434650;91;21593;-82
2021/07/31 09:56:54;;;;;;;23.38;5.42;;;;;;;29.15;41.78;99665.67;1443680;91;20327;-82
2021/07/31 09:59:23;;;;;;;76.00;8.68;;;;;;;29.23;41.57;99653.59;1441919;90;21662;-82
2021/07/31 10:01:53;;;;;;;35.17;6.08;;;;;;;29.44;41.65;99646.53;1437879;91;23213;-82
2021/07/31 10:04:19;;;;;;;9.33;5.28;;;;;;;29.78;41.74;99638.20;1436242;91;21379;-83
2021/07/31 10:06:45;;;;;;;12.88;4.15;;;;;;;29.80;40.47;99637.89;1441092;91;21541;-83
2021/07/31 10:09:13;;;;;;;14.85;4.67;;;;;;;29.78;41.15;99631.91;1440222;90;21482;-82
2021/07/31 10:11:41;;;;;;;16.50;4.62;;;;;;;29.72;41.38;99633.09;1441140;91;21408;-82
2021/07/31 10:14:09;;;;;;;10.88;4.70;;;;;;;29.59;41.43;99647.69;1439027;91;21483;-82
2021/07/31 10:16:40;;;;;;;12.93;4.70;;;;;;;29.47;41.72;99635.04;1437004;91;21342;-82
2021/07/31 10:19:09;;;;;;;19.15;4.80;;;;;;;29.37;41.89;99630.51;1436920;91;21672;-83
2021/07/31 10:21:58;;;;;;;31.52;5.80;;;;;;;29.35;42.48;99623.75;1439534;89;22251;-83
2021/07/31 10:24:22;;;;;;;15.70;5.15;;;;;;;29.39;42.97;99618.77;1436558;89;21556;-83
2021/07/31 10:27:21;;;;;;;15.40;4.35;;;;;;;29.53;43.03;99610.70;1436484;91;21386;-83
2021/07/31 10:29:51;;;;;;;24.37;5.12;;;;;;;29.61;42.26;99610.05;1452783;91;22451;-82
2021/07/31 10:32:29;;;;;;;22.27;5.30;;;;;;;29.72;42.93;99614.81;1432061;91;21534;-83
2021/07/31 10:35:03;;;;;;;19.82;6.08;;;;;;;29.82;42.46;99617.97;1440397;91;21437;-83
2021/07/31 10:37:35;;;;;;;17.55;5.35;;;;;;;29.94;42.18;99617.52;1436158;91;21579;-83
2021/07/31 10:40:32;;;;;;;13.88;5.22;;;;;;;30.11;42.12;99622.69;1431322;88;21354;-83
2021/07/31 10:43:03;;;;;;;17.37;5.10;;;;;;;30.28;42.26;99622.74;1452158;88;22218;-80
2021/07/31 10:45:32;;;;;;;9.90;4.55;;;;;;;30.40;42.22;99616.25;1455894;88;21539;-81
2021/07/31 10:48:06;;;;;;;19.65;5.55;;;;;;;30.51;41.84;99617.70;1464951;88;21523;-81
2021/07/31 10:50:38;;;;;;;19.07;5.50;;;;;;;30.61;41.57;99602.24;1454730;88;21368;-81
2021/07/31 10:53:14;;;;;;;12.45;4.85;;;;;;;30.70;41.36;99614.09;1448564;88;21484;-81
2021/07/31 10:55:49;;;;;;;17.73;5.08;;;;;;;30.99;41.45;99609.20;1429190;91;21463;-81
2021/07/31 10:58:20;;;;;;;21.90;5.67;;;;;;;31.03;40.34;99612.94;1429696;91;21464;-82
2021/07/31 11:00:53;;;;;;;19.80;5.95;;;;;;;31.05;40.68;99616.75;1421948;91;22250;-82
2021/07/31 11:03:26;;;;;;;10.50;5.67;;;;;;;31.03;40.38;99620.34;1361661;94;21739;-82
2021/07/31 11:06:00;;;;;;;17.87;5.03;;;;;;;31.17;40.54;99617.05;1399508;93;21564;-82
2021/07/31 11:08:36;;;;;;;17.87;5.67;;;;;;;31.28;39.88;99614.12;1433751;89;21442;-82
2021/07/31 11:11:26;;;;;;;10.28;4.72;;;;;;;31.29;40.54;99619.83;1425553;90;21472;-83
2021/07/31 11:13:53;;;;;;;;;;;;;;;31.16;40.21;99621.44;1434038;89;21520;-82
2021/07/31 11:16:23;;;;;;;49.93;6.25;;;;;;;30.74;40.04;99627.41;1434804;91;20357;-83
2021/07/31 11:18:51;;;;;;;;;;;;;;;30.53;41.03;99630.51;1435019;91;21430;-83
2021/07/31 11:21:25;;;;;;;7.42;5.58;;;;;;;30.20;41.69;99630.20;1437402;89;20329;-83
2021/07/31 11:24:08;;;;;;;17.20;5.67;;;;;;;29.95;42.92;99622.66;1441986;88;21353;-83
2021/07/31 11:26:53;;;;;;;18.82;5.87;;;;;;;29.64;43.78;99615.49;1456579;89;21839;-83
2021/07/31 11:29:27;;;;;;;15.35;5.40;;;;;;;29.45;44.36;99624.97;1462103;89;22336;-83
2021/07/31 11:32:11;;;;;;;57.20;7.45;;;;;;;29.28;44.91;99634.18;1456365;89;22491;-83
2021/07/31 11:34:44;;;;;;;19.23;6.30;;;;;;;29.10;45.57;99650.18;1456509;89;21604;-83
2021/07/31 11:37:12;;;;;;;64.77;9.05;;;;;;;28.89;46.41;99667.82;1439142;89;22569;-82